createdAt,value
2019-04-28T00:00:37.285Z,0.00
2019-04-28T00:01:37.465Z,0.00
2019-04-28T00:02:37.650Z,0.00
2019-04-28T00:03:37.842Z,0.00
2019-04-28T00:04:38.027Z,0.00
2019-04-28T00:05:38.218Z,0.00
2019-04-28T00:06:38.399Z,0.00
2019-04-28T00:07:38.585Z,0.00
2019-04-28T00:08:38.765Z,0.00
2019-04-28T00:09:38.952Z,0.00
2019-04-28T00:10:39.141Z,0.00
2019-04-28T00:11:39.324Z,0.00
2019-04-28T00:12:41.277Z,0.00
2019-04-28T00:13:41.284Z,0.00
2019-04-28T00:14:41.652Z,0.00
2019-04-28T00:15:41.704Z,0.00
2019-04-28T00:16:41.182Z,0.00
2019-04-28T00:17:41.972Z,0.00
2019-04-28T00:18:41.555Z,0.00
2019-04-28T00:19:41.014Z,0.00
2019-04-28T00:20:40.976Z,0.00
2019-04-28T00:21:41.544Z,0.00
2019-04-28T00:22:41.887Z,0.00
2019-04-28T00:23:42.275Z,0.00
2019-04-28T00:24:41.769Z,0.00
2019-04-28T00:25:43.563Z,0.00
2019-04-28T00:26:42.085Z,0.00
2019-04-28T00:27:42.267Z,0.00
2019-04-28T00:28:42.453Z,0.00
2019-04-28T00:29:46.048Z,0.00
2019-04-28T00:30:42.818Z,0.00
2019-04-28T00:31:43.000Z,0.00
2019-04-28T00:32:43.188Z,0.00
2019-04-28T00:33:43.542Z,0.00
2019-04-28T00:34:43.561Z,0.00
2019-04-28T00:35:43.748Z,0.00
2019-04-28T00:36:43.935Z,0.00
2019-04-28T00:37:44.119Z,0.00
2019-04-28T00:38:44.302Z,0.00
2019-04-28T00:39:44.486Z,0.00
2019-04-28T00:40:44.675Z,0.00
2019-04-28T00:41:44.867Z,0.00
2019-04-28T00:42:45.047Z,0.00
2019-04-28T00:43:45.228Z,0.00
2019-04-28T00:44:45.415Z,0.00
2019-04-28T00:45:45.595Z,0.00
2019-04-28T00:46:45.827Z,0.00
2019-04-28T00:47:45.957Z,0.00
2019-04-28T00:48:46.142Z,0.00
2019-04-28T00:49:46.331Z,0.00
2019-04-28T00:50:46.509Z,0.00
2019-04-28T00:51:46.693Z,0.00
2019-04-28T00:52:46.876Z,0.00
2019-04-28T00:53:47.059Z,0.00
2019-04-28T00:54:47.258Z,0.00
2019-04-28T00:55:47.434Z,0.00
2019-04-28T00:56:47.623Z,0.00
2019-04-28T00:57:47.806Z,0.00
2019-04-28T00:58:47.985Z,0.00
2019-04-28T00:59:55.076Z,0.00
2019-04-28T01:00:48.355Z,0.00
2019-04-28T01:01:48.540Z,0.00
2019-04-28T01:02:48.723Z,0.00
2019-04-28T01:03:48.901Z,0.00
2019-04-28T01:04:49.086Z,0.00
2019-04-28T01:05:50.845Z,0.00
2019-04-28T01:06:49.462Z,0.00
2019-04-28T01:07:51.081Z,0.00
2019-04-28T01:08:51.521Z,0.00
2019-04-28T01:09:51.658Z,0.00
2019-04-28T01:10:50.834Z,0.00
2019-04-28T01:11:51.131Z,0.00
2019-04-28T01:12:51.005Z,0.00
2019-04-28T01:13:51.827Z,0.00
2019-04-28T01:14:54.516Z,0.00
2019-04-28T01:15:51.123Z,0.00
2019-04-28T01:16:51.563Z,0.00
2019-04-28T01:17:51.486Z,0.00
2019-04-28T01:18:51.672Z,0.00
2019-04-28T01:19:51.854Z,0.00
2019-04-28T01:20:52.043Z,0.00
2019-04-28T01:21:52.227Z,0.00
2019-04-28T01:22:52.412Z,0.00
2019-04-28T01:23:52.592Z,0.00
2019-04-28T01:24:52.798Z,0.00
2019-04-28T01:25:52.972Z,0.00
2019-04-28T01:26:53.162Z,0.00
2019-04-28T01:27:53.342Z,0.00
2019-04-28T01:28:53.524Z,0.00
2019-04-28T01:30:05.486Z,0.00
2019-04-28T01:30:53.892Z,0.00
2019-04-28T01:31:54.076Z,0.00
2019-04-28T01:32:54.261Z,0.00
2019-04-28T01:33:54.448Z,0.00
2019-04-28T01:34:54.635Z,0.00
2019-04-28T01:35:54.822Z,0.00
2019-04-28T01:36:55.011Z,0.00
2019-04-28T01:37:55.229Z,0.00
2019-04-28T01:38:55.414Z,0.00
2019-04-28T01:39:55.593Z,0.00
2019-04-28T01:40:55.779Z,0.00
2019-04-28T01:41:55.960Z,0.00
2019-04-28T01:42:56.148Z,0.00
2019-04-28T01:43:56.329Z,0.00
2019-04-28T01:44:56.529Z,0.00
2019-04-28T01:45:56.709Z,0.00
2019-04-28T01:46:56.902Z,0.00
2019-04-28T01:47:59.813Z,0.00
2019-04-28T01:48:57.271Z,0.00
2019-04-28T01:49:57.452Z,0.00
2019-04-28T01:50:57.637Z,0.00
2019-04-28T01:51:57.830Z,0.00
2019-04-28T01:52:59.723Z,0.00
2019-04-28T01:54:00.076Z,0.00
2019-04-28T01:55:00.300Z,0.00
2019-04-28T01:55:59.547Z,0.00
2019-04-28T01:57:01.063Z,0.00
2019-04-28T01:57:59.597Z,0.00
2019-04-28T01:59:00.300Z,0.00
2019-04-28T01:59:59.973Z,0.00
2019-04-28T02:00:59.723Z,0.00
2019-04-28T02:02:00.287Z,0.00
2019-04-28T02:03:00.166Z,0.00
2019-04-28T02:04:00.326Z,0.00
2019-04-28T02:05:00.203Z,0.00
2019-04-28T02:06:00.400Z,0.00
2019-04-28T02:07:00.566Z,0.00
2019-04-28T02:08:00.755Z,0.00
2019-04-28T02:09:01.023Z,0.00
2019-04-28T02:10:01.131Z,0.00
2019-04-28T02:11:01.315Z,0.00
2019-04-28T02:12:01.499Z,0.00
2019-04-28T02:13:01.680Z,0.00
2019-04-28T02:14:01.870Z,0.00
2019-04-28T02:15:02.079Z,0.00
2019-04-28T02:16:02.231Z,0.00
2019-04-28T02:17:02.418Z,0.00
2019-04-28T02:18:02.599Z,0.00
2019-04-28T02:19:02.794Z,0.00
2019-04-28T02:20:02.978Z,0.00
2019-04-28T02:21:03.171Z,0.00
2019-04-28T02:23:46.058Z,0.00
2019-04-28T02:24:46.245Z,0.00
2019-04-28T02:25:46.423Z,0.00
2019-04-28T02:26:46.617Z,0.00
2019-04-28T02:27:46.795Z,0.00
2019-04-28T02:28:46.979Z,0.00
2019-04-28T02:29:47.161Z,0.00
2019-04-28T02:30:50.357Z,0.00
2019-04-28T02:31:47.532Z,0.00
2019-04-28T02:32:47.713Z,0.00
2019-04-28T02:33:50.510Z,0.00
2019-04-28T02:34:49.865Z,0.00
2019-04-28T02:35:50.948Z,0.00
2019-04-28T02:36:50.641Z,0.00
2019-04-28T02:37:50.325Z,0.00
2019-04-28T02:38:51.356Z,0.00
2019-04-28T02:39:50.516Z,0.00
2019-04-28T02:40:50.331Z,0.00
2019-04-28T02:41:51.225Z,0.00
2019-04-28T02:42:51.877Z,0.00
2019-04-28T02:43:51.004Z,0.00
2019-04-28T02:44:50.518Z,0.00
2019-04-28T02:45:51.071Z,0.00
2019-04-28T02:46:50.819Z,0.00
2019-04-28T02:47:52.283Z,0.00
2019-04-28T02:48:53.943Z,0.00
2019-04-28T02:49:50.820Z,0.00
2019-04-28T02:50:51.180Z,0.00
2019-04-28T02:51:51.189Z,0.00
2019-04-28T02:52:52.064Z,0.00
2019-04-28T02:53:51.583Z,0.00
2019-04-28T02:54:51.754Z,0.00
2019-04-28T02:55:51.931Z,0.00
2019-04-28T02:56:52.118Z,0.00
2019-04-28T02:57:52.300Z,0.00
2019-04-28T02:58:52.483Z,0.00
2019-04-28T02:59:52.671Z,0.00
2019-04-28T03:01:08.982Z,0.00
2019-04-28T03:01:53.039Z,0.00
2019-04-28T03:02:53.211Z,0.00
2019-04-28T03:03:53.405Z,0.00
2019-04-28T03:04:53.577Z,0.00
2019-04-28T03:05:53.760Z,0.00
2019-04-28T03:06:53.943Z,0.00
2019-04-28T03:07:54.137Z,0.00
2019-04-28T03:08:54.319Z,0.00
2019-04-28T03:09:54.499Z,0.00
2019-04-28T03:10:54.685Z,0.00
2019-04-28T03:11:54.869Z,0.00
2019-04-28T03:12:55.049Z,0.00
2019-04-28T03:13:55.235Z,0.00
2019-04-28T03:14:55.423Z,0.00
2019-04-28T03:15:55.610Z,0.00
2019-04-28T03:16:55.796Z,0.00
2019-04-28T03:17:55.982Z,0.00
2019-04-28T03:18:56.162Z,0.00
2019-04-28T03:19:56.346Z,0.00
2019-04-28T03:20:56.528Z,0.00
2019-04-28T03:21:56.707Z,0.00
2019-04-28T03:22:56.893Z,0.00
2019-04-28T03:23:57.076Z,0.00
2019-04-28T03:24:57.258Z,0.00
2019-04-28T03:25:57.449Z,0.00
2019-04-28T03:26:57.628Z,0.00
2019-04-28T03:28:00.515Z,0.00
2019-04-28T03:29:00.795Z,0.00
2019-04-28T03:30:00.713Z,0.00
2019-04-28T03:31:03.305Z,0.00
2019-04-28T03:32:18.320Z,0.00
2019-04-28T03:33:04.926Z,4.00
2019-04-28T03:34:03.401Z,4.00
2019-04-28T03:35:03.211Z,4.00
2019-04-28T03:36:07.037Z,4.00
2019-04-28T03:37:00.338Z,4.00
2019-04-28T03:38:01.210Z,8.00
2019-04-28T03:39:00.682Z,4.00
2019-04-28T03:40:00.629Z,4.00
2019-04-28T03:41:01.017Z,12.00
2019-04-28T03:42:00.365Z,12.00
2019-04-28T03:43:03.194Z,12.00
2019-04-28T03:44:00.754Z,12.00
2019-04-28T03:45:01.169Z,16.00
2019-04-28T03:46:03.577Z,20.00
2019-04-28T03:47:03.096Z,20.00
2019-04-28T03:48:01.482Z,24.00
2019-04-28T03:49:01.664Z,32.00
2019-04-28T03:50:01.852Z,36.00
2019-04-28T03:51:02.041Z,40.00
2019-04-28T03:52:02.202Z,48.00
2019-04-28T03:53:02.390Z,52.00
2019-04-28T03:54:03.146Z,60.00
2019-04-28T03:55:02.752Z,72.00
2019-04-28T03:56:02.942Z,80.00
2019-04-28T03:57:03.132Z,88.00
2019-04-28T03:58:03.317Z,96.00
2019-04-28T03:59:03.519Z,108.00
2019-04-28T04:00:03.698Z,116.00
2019-04-28T04:01:03.898Z,132.00
2019-04-28T04:02:04.070Z,144.00
2019-04-28T04:03:04.253Z,156.00
2019-04-28T04:04:04.434Z,164.00
2019-04-28T04:05:04.625Z,184.00
2019-04-28T04:06:04.802Z,196.00
2019-04-28T04:07:04.986Z,208.00
2019-04-28T04:08:05.168Z,220.00
2019-04-28T04:09:05.359Z,236.00
2019-04-28T04:10:05.539Z,252.00
2019-04-28T04:11:05.722Z,268.00
2019-04-28T04:12:05.917Z,288.00
2019-04-28T04:13:06.100Z,308.00
2019-04-28T04:14:06.283Z,324.00
2019-04-28T04:15:06.478Z,348.00
2019-04-28T04:16:06.654Z,376.00
2019-04-28T04:17:06.836Z,396.00
2019-04-28T04:18:07.017Z,424.00
2019-04-28T04:19:07.205Z,456.00
2019-04-28T04:20:07.386Z,492.00
2019-04-28T04:21:07.563Z,528.00
2019-04-28T04:22:09.975Z,564.00
2019-04-28T04:23:11.067Z,604.00
2019-04-28T04:24:10.667Z,652.00
2019-04-28T04:25:10.214Z,700.00
2019-04-28T04:26:11.456Z,756.00
2019-04-28T04:27:10.757Z,808.00
2019-04-28T04:28:10.515Z,860.00
2019-04-28T04:29:10.151Z,920.00
2019-04-28T04:30:10.878Z,980.00
2019-04-28T04:31:10.486Z,1040.00
2019-04-28T04:32:18.129Z,1100.00
2019-04-28T04:33:11.080Z,1168.00
2019-04-28T04:34:10.695Z,1240.00
2019-04-28T04:35:10.546Z,1312.00
2019-04-28T04:36:11.623Z,1380.00
2019-04-28T04:37:12.618Z,1460.00
2019-04-28T04:38:10.687Z,1536.00
2019-04-28T04:39:11.012Z,1604.00
2019-04-28T04:40:13.279Z,1672.00
2019-04-28T04:41:11.473Z,1744.00
2019-04-28T04:42:11.417Z,1800.00
2019-04-28T04:43:11.597Z,1852.00
2019-04-28T04:44:11.782Z,1904.00
2019-04-28T04:45:11.985Z,1956.00
2019-04-28T04:46:14.191Z,2024.00
2019-04-28T04:47:12.342Z,2096.00
2019-04-28T04:48:12.526Z,2180.00
2019-04-28T04:49:12.710Z,2264.00
2019-04-28T04:50:13.251Z,2352.00
2019-04-28T04:51:13.076Z,2448.00
2019-04-28T04:52:13.256Z,2544.00
2019-04-28T04:53:13.435Z,2644.00
2019-04-28T04:54:13.627Z,2764.00
2019-04-28T04:55:13.802Z,2912.00
2019-04-28T04:56:13.988Z,3092.00
2019-04-28T04:57:14.174Z,3236.00
2019-04-28T04:58:14.353Z,3312.00
2019-04-28T04:59:14.533Z,3396.00
2019-04-28T05:00:14.721Z,3512.00
2019-04-28T05:01:14.902Z,3672.00
2019-04-28T05:02:26.718Z,3876.00
2019-04-28T05:03:15.276Z,4148.00
2019-04-28T05:04:15.458Z,4500.00
2019-04-28T05:05:15.642Z,4984.00
2019-04-28T05:06:15.828Z,5624.00
2019-04-28T05:07:16.011Z,6616.00
2019-04-28T05:08:16.196Z,7636.00
2019-04-28T05:09:16.377Z,8512.00
2019-04-28T05:10:16.562Z,7896.00
2019-04-28T05:11:16.743Z,10008.00
2019-04-28T05:12:16.929Z,9484.00
2019-04-28T05:13:17.106Z,8700.00
2019-04-28T05:14:17.291Z,9424.00
2019-04-28T05:15:17.477Z,8580.00
2019-04-28T05:16:19.674Z,8420.00
2019-04-28T05:17:17.842Z,7784.00
2019-04-28T05:18:19.878Z,7912.00
2019-04-28T05:19:19.457Z,8092.00
2019-04-28T05:20:20.050Z,8220.00
2019-04-28T05:21:19.218Z,8360.00
2019-04-28T05:22:20.178Z,8452.00
2019-04-28T05:23:19.646Z,8516.00
2019-04-28T05:24:19.994Z,8612.00
2019-04-28T05:25:20.430Z,8724.00
2019-04-28T05:26:21.191Z,8980.00
2019-04-28T05:27:24.025Z,9352.00
2019-04-28T05:28:19.871Z,9792.00
2019-04-28T05:29:26.487Z,10376.00
2019-04-28T05:30:20.511Z,12516.00
2019-04-28T05:31:24.210Z,10744.00
2019-04-28T05:32:20.647Z,17472.00
2019-04-28T05:33:23.656Z,19712.00
2019-04-28T05:34:23.922Z,15424.00
2019-04-28T05:35:22.020Z,16480.00
2019-04-28T05:36:21.362Z,23744.00
2019-04-28T05:37:21.551Z,18912.00
2019-04-28T05:38:21.742Z,12688.00
2019-04-28T05:39:21.926Z,12276.00
2019-04-28T05:40:22.113Z,12528.00
2019-04-28T05:41:22.300Z,13004.00
2019-04-28T05:42:22.487Z,13620.00
2019-04-28T05:43:22.670Z,13552.00
2019-04-28T05:44:22.844Z,13240.00
2019-04-28T05:45:23.034Z,13104.00
2019-04-28T05:46:23.220Z,12384.00
2019-04-28T05:47:23.414Z,12128.00
2019-04-28T05:48:23.599Z,11920.00
2019-04-28T05:49:23.785Z,11772.00
2019-04-28T05:50:23.975Z,11640.00
2019-04-28T05:51:24.158Z,11612.00
2019-04-28T05:52:24.343Z,11532.00
2019-04-28T05:53:24.528Z,11500.00
2019-04-28T05:54:24.716Z,11548.00
2019-04-28T05:55:24.908Z,11568.00
2019-04-28T05:56:25.091Z,11580.00
2019-04-28T05:57:25.268Z,11596.00
2019-04-28T05:58:25.466Z,11596.00
2019-04-28T05:59:25.652Z,11632.00
2019-04-28T06:00:25.839Z,11648.00
2019-04-28T06:01:26.029Z,11632.00
2019-04-28T06:02:26.213Z,11660.00
2019-04-28T06:03:26.394Z,11732.00
2019-04-28T06:04:26.579Z,11840.00
2019-04-28T06:05:26.771Z,11928.00
2019-04-28T06:06:26.961Z,12044.00
2019-04-28T06:07:27.144Z,12224.00
2019-04-28T06:08:27.341Z,12436.00
2019-04-28T06:09:29.416Z,12640.00
2019-04-28T06:10:29.802Z,12856.00
2019-04-28T06:11:27.899Z,13080.00
2019-04-28T06:12:28.098Z,13364.00
2019-04-28T06:13:30.169Z,13660.00
2019-04-28T06:14:30.055Z,14100.00
2019-04-28T06:15:29.478Z,14588.00
2019-04-28T06:16:30.437Z,14968.00
2019-04-28T06:17:29.554Z,15204.00
2019-04-28T06:18:30.796Z,15356.00
2019-04-28T06:19:30.167Z,16064.00
2019-04-28T06:20:30.360Z,16864.00
2019-04-28T06:21:29.784Z,17280.00
2019-04-28T06:22:29.971Z,18112.00
2019-04-28T06:23:30.148Z,19456.00
2019-04-28T06:24:30.352Z,21920.00
2019-04-28T06:25:30.535Z,24192.00
2019-04-28T06:26:30.735Z,27584.00
2019-04-28T06:27:32.635Z,28064.00
2019-04-28T06:28:31.110Z,33408.00
2019-04-28T06:29:31.305Z,48960.00
2019-04-28T06:30:31.479Z,43712.00
2019-04-28T06:31:31.671Z,38784.00
2019-04-28T06:32:31.860Z,39328.00
2019-04-28T06:33:32.052Z,47840.00
2019-04-28T06:34:32.279Z,42848.00
2019-04-28T06:35:32.435Z,46720.00
2019-04-28T06:36:32.626Z,40768.00
2019-04-28T06:37:32.814Z,34976.00
2019-04-28T06:38:33.001Z,45792.00
2019-04-28T06:39:33.185Z,61408.00
2019-04-28T06:40:33.391Z,32896.00
2019-04-28T06:41:33.588Z,28480.00
2019-04-28T06:42:33.804Z,17920.00
2019-04-28T06:43:33.991Z,19776.00
2019-04-28T06:44:34.196Z,22496.00
2019-04-28T06:45:34.382Z,24864.00
2019-04-28T06:46:34.565Z,16960.00
2019-04-28T06:47:34.765Z,15236.00
2019-04-28T06:48:34.958Z,15948.00
2019-04-28T06:49:35.152Z,19168.00
2019-04-28T06:50:35.339Z,20544.00
2019-04-28T06:51:35.519Z,21056.00
2019-04-28T06:52:35.709Z,25568.00
2019-04-28T06:53:35.896Z,61984.00
2019-04-28T06:54:36.089Z,17568.00
2019-04-28T06:55:36.275Z,15868.00
2019-04-28T06:56:36.478Z,13688.00
2019-04-28T06:57:36.663Z,15092.00
2019-04-28T06:58:36.851Z,14316.00
2019-04-28T06:59:37.038Z,15160.00
2019-04-28T07:00:37.225Z,17632.00
2019-04-28T07:01:37.422Z,14000.00
2019-04-28T07:02:37.623Z,12824.00
2019-04-28T07:03:37.818Z,11568.00
2019-04-28T07:04:37.999Z,10620.00
2019-04-28T07:05:38.186Z,10364.00
2019-04-28T07:06:38.374Z,9476.00
2019-04-28T07:07:38.577Z,9020.00
2019-04-28T07:08:38.759Z,7904.00
2019-04-28T07:09:38.954Z,7732.00
2019-04-28T07:10:39.143Z,8512.00
2019-04-28T07:11:39.331Z,9380.00
2019-04-28T07:12:39.518Z,8780.00
2019-04-28T07:13:39.703Z,8216.00
2019-04-28T07:14:39.892Z,8212.00
2019-04-28T07:15:40.077Z,7940.00
2019-04-28T07:16:40.270Z,7624.00
2019-04-28T07:17:40.505Z,7580.00
2019-04-28T07:18:40.656Z,7588.00
2019-04-28T07:19:40.839Z,7432.00
2019-04-28T07:20:41.050Z,7136.00
2019-04-28T07:21:41.238Z,6816.00
2019-04-28T07:22:41.427Z,6996.00
2019-04-28T07:23:41.616Z,7496.00
2019-04-28T07:24:44.689Z,8052.00
2019-04-28T07:25:41.982Z,8332.00
2019-04-28T07:26:42.175Z,8276.00
2019-04-28T07:27:42.357Z,8192.00
2019-04-28T07:28:42.540Z,8188.00
2019-04-28T07:29:42.731Z,8356.00
2019-04-28T07:30:42.916Z,8468.00
2019-04-28T07:31:43.102Z,8540.00
2019-04-28T07:32:43.291Z,8928.00
2019-04-28T07:33:43.475Z,9480.00
2019-04-28T07:34:43.675Z,10072.00
2019-04-28T07:35:43.857Z,10440.00
2019-04-28T07:36:44.050Z,10572.00
2019-04-28T07:37:44.234Z,10948.00
2019-04-28T07:38:44.420Z,11192.00
2019-04-28T07:39:44.607Z,10992.00
2019-04-28T07:40:44.792Z,10632.00
2019-04-28T07:41:44.987Z,11268.00
2019-04-28T07:42:45.176Z,10912.00
2019-04-28T07:43:45.359Z,11392.00
2019-04-28T07:44:45.542Z,11648.00
2019-04-28T07:45:45.734Z,12900.00
2019-04-28T07:46:45.931Z,18432.00
2019-04-28T07:47:46.146Z,16544.00
2019-04-28T07:48:46.310Z,17632.00
2019-04-28T07:49:46.497Z,16320.00
2019-04-28T07:50:46.690Z,16704.00
2019-04-28T07:51:46.882Z,12960.00
2019-04-28T07:52:47.072Z,12180.00
2019-04-28T07:53:47.264Z,11672.00
2019-04-28T07:54:47.450Z,11068.00
2019-04-28T07:55:47.647Z,10884.00
2019-04-28T07:56:47.831Z,11280.00
2019-04-28T07:57:48.024Z,11952.00
2019-04-28T07:58:48.205Z,12540.00
2019-04-28T07:59:48.395Z,13424.00
2019-04-28T08:00:48.889Z,14472.00
2019-04-28T08:01:48.766Z,14780.00
2019-04-28T08:02:48.950Z,14304.00
2019-04-28T08:03:50.035Z,15108.00
2019-04-28T08:04:49.331Z,19424.00
2019-04-28T08:05:49.553Z,46592.00
2019-04-28T08:06:49.746Z,30016.00
2019-04-28T08:07:49.927Z,69600.00
2019-04-28T08:08:50.114Z,68704.00
2019-04-28T08:09:50.313Z,30304.00
2019-04-28T08:10:50.503Z,31552.00
2019-04-28T08:11:50.679Z,71072.00
2019-04-28T08:12:50.886Z,50080.00
2019-04-28T08:13:51.076Z,89920.00
2019-04-28T08:14:51.265Z,52256.00
2019-04-28T08:15:51.480Z,82976.00
2019-04-28T08:16:51.667Z,48960.00
2019-04-28T08:17:51.844Z,96640.00
2019-04-28T08:18:52.038Z,51296.00
2019-04-28T08:19:52.251Z,54496.00
2019-04-28T08:20:52.432Z,52544.00
2019-04-28T08:21:52.626Z,25536.00
2019-04-28T08:22:52.821Z,22080.00
2019-04-28T08:23:53.013Z,20672.00
2019-04-28T08:24:53.204Z,20896.00
2019-04-28T08:25:53.412Z,21504.00
2019-04-28T08:26:53.601Z,23328.00
2019-04-28T08:27:53.798Z,22112.00
2019-04-28T08:28:53.990Z,21984.00
2019-04-28T08:29:58.768Z,22464.00
2019-04-28T08:30:54.369Z,25472.00
2019-04-28T08:31:54.560Z,29376.00
2019-04-28T08:32:54.791Z,26432.00
2019-04-28T08:34:02.145Z,27520.00
2019-04-28T08:34:55.653Z,27168.00
2019-04-28T08:35:55.342Z,30176.00
2019-04-28T08:36:55.528Z,46336.00
2019-04-28T08:37:55.726Z,27584.00
2019-04-28T08:38:55.918Z,25920.00
2019-04-28T08:39:56.107Z,25152.00
2019-04-28T08:40:56.303Z,25536.00
2019-04-28T08:41:56.491Z,24992.00
2019-04-28T08:42:56.685Z,21440.00
2019-04-28T08:43:56.882Z,20384.00
2019-04-28T08:44:57.071Z,19808.00
2019-04-28T08:45:57.263Z,23232.00
2019-04-28T08:46:57.458Z,72480.00
2019-04-28T08:47:58.091Z,38368.00
2019-04-28T08:48:57.855Z,87488.00
2019-04-28T08:49:58.046Z,80000.00
2019-04-28T08:50:58.244Z,86624.00
2019-04-28T08:51:58.440Z,86944.00
2019-04-28T08:52:58.639Z,39872.00
2019-04-28T08:53:58.876Z,101408.00
2019-04-28T08:54:59.068Z,94336.00
2019-04-28T08:55:59.281Z,37472.00
2019-04-28T08:56:59.474Z,35296.00
2019-04-28T08:57:59.668Z,33184.00
2019-04-28T08:58:59.877Z,100768.00
2019-04-28T09:00:00.056Z,100480.00
2019-04-28T09:01:00.259Z,99328.00
2019-04-28T09:02:00.451Z,100096.00
2019-04-28T09:03:00.644Z,25152.00
2019-04-28T09:04:00.842Z,30880.00
2019-04-28T09:05:01.036Z,90816.00
2019-04-28T09:06:01.509Z,94560.00
2019-04-28T09:07:01.439Z,95968.00
2019-04-28T09:08:01.625Z,95200.00
2019-04-28T09:09:01.835Z,92768.00
2019-04-28T09:10:02.029Z,90720.00
2019-04-28T09:11:02.235Z,88608.00
2019-04-28T09:12:02.433Z,88768.00
2019-04-28T09:13:02.689Z,88608.00
2019-04-28T09:14:02.829Z,89472.00
2019-04-28T09:15:03.030Z,88928.00
2019-04-28T09:16:03.221Z,90080.00
2019-04-28T09:17:03.418Z,92544.00
2019-04-28T09:18:03.619Z,49248.00
2019-04-28T09:19:03.820Z,29984.00
2019-04-28T09:20:04.021Z,31200.00
2019-04-28T09:21:04.216Z,29632.00
2019-04-28T09:22:04.414Z,23392.00
2019-04-28T09:23:04.612Z,21504.00
2019-04-28T09:24:04.821Z,20192.00
2019-04-28T09:25:05.017Z,21568.00
2019-04-28T09:26:05.203Z,27264.00
2019-04-28T09:27:05.407Z,26752.00
2019-04-28T09:28:05.600Z,30976.00
2019-04-28T09:29:05.811Z,22144.00
2019-04-28T09:30:05.997Z,20544.00
2019-04-28T09:31:06.191Z,23584.00
2019-04-28T09:32:06.385Z,18496.00
2019-04-28T09:33:06.578Z,16448.00
2019-04-28T09:34:06.774Z,14572.00
2019-04-28T09:35:06.971Z,13164.00
2019-04-28T09:36:07.152Z,11860.00
2019-04-28T09:37:07.351Z,11080.00
2019-04-28T09:38:07.541Z,11064.00
2019-04-28T09:39:07.732Z,12172.00
2019-04-28T09:40:07.931Z,11952.00
2019-04-28T09:41:08.121Z,10764.00
2019-04-28T09:42:08.311Z,10360.00
2019-04-28T09:43:08.505Z,10036.00
2019-04-28T09:44:08.690Z,9852.00
2019-04-28T09:45:08.883Z,9980.00
2019-04-28T09:46:09.073Z,10296.00
2019-04-28T09:47:09.266Z,10672.00
2019-04-28T09:48:09.454Z,11140.00
2019-04-28T09:49:09.645Z,11496.00
2019-04-28T09:50:09.837Z,11788.00
2019-04-28T09:51:10.022Z,11912.00
2019-04-28T09:52:10.226Z,12048.00
2019-04-28T09:53:10.410Z,12252.00
2019-04-28T09:54:10.597Z,12548.00
2019-04-28T09:55:10.813Z,12844.00
2019-04-28T09:56:10.998Z,13200.00
2019-04-28T09:57:11.175Z,13400.00
2019-04-28T09:58:11.365Z,13528.00
2019-04-28T09:59:11.546Z,13568.00
2019-04-28T10:00:11.744Z,13564.00
2019-04-28T10:01:11.931Z,13668.00
2019-04-28T10:02:12.121Z,14012.00
2019-04-28T10:03:12.309Z,14600.00
2019-04-28T10:04:12.506Z,14876.00
2019-04-28T10:05:12.693Z,14732.00
2019-04-28T10:06:12.886Z,14776.00
2019-04-28T10:07:13.077Z,13660.00
2019-04-28T10:08:13.281Z,13056.00
2019-04-28T10:09:13.475Z,13112.00
2019-04-28T10:10:13.663Z,13052.00
2019-04-28T10:11:13.864Z,13596.00
2019-04-28T10:12:26.347Z,13684.00
2019-04-28T10:13:14.247Z,14140.00
2019-04-28T10:14:14.438Z,13832.00
2019-04-28T10:15:14.623Z,13900.00
2019-04-28T10:16:14.812Z,14588.00
2019-04-28T10:17:15.022Z,21472.00
2019-04-28T10:18:15.219Z,25632.00
2019-04-28T10:19:15.406Z,49344.00
2019-04-28T10:20:15.596Z,17632.00
2019-04-28T10:21:15.785Z,16192.00
2019-04-28T10:22:15.969Z,14776.00
2019-04-28T10:23:16.157Z,14264.00
2019-04-28T10:24:16.349Z,13992.00
2019-04-28T10:25:16.540Z,13996.00
2019-04-28T10:26:16.727Z,14088.00
2019-04-28T10:27:16.920Z,14180.00
2019-04-28T10:28:17.110Z,14228.00
2019-04-28T10:29:17.306Z,14104.00
2019-04-28T10:30:17.484Z,13840.00
2019-04-28T10:31:17.673Z,13604.00
2019-04-28T10:32:17.860Z,13120.00
2019-04-28T10:33:18.050Z,12776.00
2019-04-28T10:34:18.236Z,12444.00
2019-04-28T10:35:18.422Z,12104.00
2019-04-28T10:36:18.656Z,11744.00
2019-04-28T10:37:18.812Z,11476.00
2019-04-28T10:38:19.019Z,11280.00
2019-04-28T10:39:19.204Z,11184.00
2019-04-28T10:40:19.393Z,11284.00
2019-04-28T10:41:19.577Z,11508.00
2019-04-28T10:42:19.754Z,11628.00
2019-04-28T10:43:19.945Z,11764.00
2019-04-28T10:44:20.131Z,11864.00
2019-04-28T10:45:20.323Z,11908.00
2019-04-28T10:46:20.506Z,11892.00
2019-04-28T10:47:20.699Z,11760.00
2019-04-28T10:48:20.879Z,11496.00
2019-04-28T10:49:21.068Z,11084.00
2019-04-28T10:50:21.264Z,10672.00
2019-04-28T10:51:21.470Z,10324.00
2019-04-28T10:52:21.659Z,10104.00
2019-04-28T10:53:21.846Z,9984.00
2019-04-28T10:54:22.033Z,10028.00
2019-04-28T10:55:22.219Z,9964.00
2019-04-28T10:56:22.406Z,9936.00
2019-04-28T10:57:22.660Z,10056.00
2019-04-28T10:58:22.782Z,10256.00
2019-04-28T10:59:22.985Z,10440.00
2019-04-28T11:00:23.172Z,10684.00
2019-04-28T11:01:23.365Z,10864.00
2019-04-28T11:02:23.556Z,10936.00
2019-04-28T11:03:23.742Z,11012.00
2019-04-28T11:04:23.932Z,11240.00
2019-04-28T11:05:24.117Z,11264.00
2019-04-28T11:06:24.307Z,10924.00
2019-04-28T11:07:24.493Z,10548.00
2019-04-28T11:08:24.684Z,10020.00
2019-04-28T11:09:30.716Z,9388.00
2019-04-28T11:10:25.059Z,8880.00
2019-04-28T11:11:25.255Z,8532.00
2019-04-28T11:12:25.443Z,8356.00
2019-04-28T11:13:25.632Z,8228.00
2019-04-28T11:14:25.813Z,8064.00
2019-04-28T11:15:26.014Z,7984.00
2019-04-28T11:16:26.196Z,7960.00
2019-04-28T11:17:26.380Z,7836.00
2019-04-28T11:18:26.572Z,7600.00
2019-04-28T11:19:26.761Z,7412.00
2019-04-28T11:20:26.961Z,7248.00
2019-04-28T11:21:27.150Z,7304.00
2019-04-28T11:22:27.331Z,7420.00
2019-04-28T11:23:27.528Z,7444.00
2019-04-28T11:24:27.719Z,7480.00
2019-04-28T11:25:27.912Z,7752.00
2019-04-28T11:26:28.099Z,8292.00
2019-04-28T11:27:28.294Z,8640.00
2019-04-28T11:28:28.483Z,8756.00
2019-04-28T11:29:28.689Z,8708.00
2019-04-28T11:30:28.865Z,8592.00
2019-04-28T11:31:29.096Z,8628.00
2019-04-28T11:32:29.234Z,8932.00
2019-04-28T11:33:29.420Z,8928.00
2019-04-28T11:34:29.621Z,9160.00
2019-04-28T11:35:29.813Z,9620.00
2019-04-28T11:36:29.997Z,10356.00
2019-04-28T11:37:30.182Z,11364.00
2019-04-28T11:38:30.372Z,12116.00
2019-04-28T11:39:30.559Z,12800.00
2019-04-28T11:40:30.744Z,13712.00
2019-04-28T11:41:30.935Z,14664.00
2019-04-28T11:42:31.126Z,15480.00
2019-04-28T11:43:31.314Z,16832.00
2019-04-28T11:44:31.508Z,17632.00
2019-04-28T11:45:31.697Z,17024.00
2019-04-28T11:46:31.882Z,16128.00
2019-04-28T11:47:32.083Z,15904.00
2019-04-28T11:48:32.262Z,16928.00
2019-04-28T11:49:32.457Z,17280.00
2019-04-28T11:50:32.655Z,16896.00
2019-04-28T11:51:32.837Z,16256.00
2019-04-28T11:52:33.034Z,15456.00
2019-04-28T11:53:33.233Z,14024.00
2019-04-28T11:54:33.427Z,13300.00
2019-04-28T11:55:33.615Z,12852.00
2019-04-28T11:56:41.111Z,12672.00
2019-04-28T11:57:34.006Z,12524.00
2019-04-28T11:58:34.207Z,11772.00
2019-04-28T11:59:34.407Z,10772.00
2019-04-28T12:00:34.591Z,10292.00
2019-04-28T12:01:34.779Z,10148.00
2019-04-28T12:02:34.961Z,10220.00
2019-04-28T12:03:35.146Z,10360.00
2019-04-28T12:04:35.341Z,10532.00
2019-04-28T12:05:38.223Z,11024.00
2019-04-28T12:06:35.715Z,11516.00
2019-04-28T12:07:35.902Z,12576.00
2019-04-28T12:08:36.089Z,13332.00
2019-04-28T12:09:36.278Z,14776.00
2019-04-28T12:10:36.460Z,18112.00
2019-04-28T12:11:36.657Z,19168.00
2019-04-28T12:12:36.848Z,19104.00
2019-04-28T12:13:37.033Z,18208.00
2019-04-28T12:14:37.220Z,19584.00
2019-04-28T12:15:37.411Z,19648.00
2019-04-28T12:16:37.595Z,20480.00
2019-04-28T12:17:37.788Z,20960.00
2019-04-28T12:18:37.977Z,21440.00
2019-04-28T12:19:38.173Z,21312.00
2019-04-28T12:20:38.366Z,21216.00